Terminal Aerodrome Forecast
Issued by NWS

Home | Current Version | Previous Version | Text Only | Print | Product List | Glossary On
Versions: 1 2 3 4 5 6 7 8 9 10 11 12 13 14 15 16 17 18 19 20 21 22 23 24 25 26 27 28 29 30
000
FTUS43 KDLH 231100
TAFHIB
TAF
KHIB 231124Z 2312/2412 14005KT 3/4SM BR VV002
      TEMPO 2312/2315 1/2SM -DZ FG VV002
     FM231600 20006KT 2SM BR OVC009
     FM231900 28009KT 5SM -FZDZSN BR BKN013 OVC028
     FM240200 31010KT 5SM -SN OVC012
     FM240800 33013G19KT 3SM -SN BR BKN009 OVC022=

USA.gov is the U.S. government's official web portal to all federal, state and local government web resources and services.